createdAt,value
2023-04-14T00:00:37.142Z,0.40
2023-04-14T00:03:04.486Z,0.57
2023-04-14T00:05:32.366Z,0.43
2023-04-14T00:07:59.454Z,0.73
2023-04-14T00:10:26.929Z,0.33
2023-04-14T00:12:55.565Z,0.70
2023-04-14T00:15:22.311Z,0.60
2023-04-14T00:17:49.079Z,0.70
2023-04-14T00:20:16.118Z,0.90
2023-04-14T00:22:42.911Z,0.90
2023-04-14T00:25:09.868Z,0.47
2023-04-14T00:27:36.517Z,0.80
2023-04-14T00:30:03.568Z,0.77
2023-04-14T00:32:30.407Z,0.57
2023-04-14T00:34:57.197Z,0.70
2023-04-14T00:37:24.375Z,0.50
2023-04-14T00:39:50.924Z,0.47
2023-04-14T00:42:17.552Z,0.60
2023-04-14T00:44:44.498Z,0.80
2023-04-14T00:47:11.561Z,0.70
2023-04-14T00:49:38.454Z,0.90
2023-04-14T00:52:05.953Z,0.97
2023-04-14T00:54:34.534Z,0.70
2023-04-14T00:57:02.937Z,0.60
2023-04-14T00:59:30.075Z,0.77
2023-04-14T01:01:57.057Z,0.57
2023-04-14T01:04:24.817Z,1.27
2023-04-14T01:06:54.593Z,0.60
2023-04-14T01:09:21.516Z,0.63
2023-04-14T01:12:16.503Z,0.50
2023-04-14T01:14:55.593Z,0.77
2023-04-14T01:17:39.505Z,0.67
2023-04-14T01:20:17.128Z,0.73
2023-04-14T01:22:49.303Z,0.70
2023-04-14T01:25:34.224Z,0.87
2023-04-14T01:28:29.980Z,0.90
2023-04-14T01:31:15.023Z,0.40
2023-04-14T01:33:44.121Z,1.23
2023-04-14T01:36:13.988Z,1.30
2023-04-14T01:38:42.843Z,1.20
2023-04-14T01:41:12.349Z,0.60
2023-04-14T01:43:42.491Z,0.93
2023-04-14T01:46:13.907Z,0.90
2023-04-14T01:48:44.736Z,1.20
2023-04-14T01:51:13.838Z,0.70
2023-04-14T01:53:43.890Z,0.70
2023-04-14T01:56:12.976Z,0.90
2023-04-14T01:58:42.246Z,1.30
2023-04-14T02:01:09.351Z,0.63
2023-04-14T02:03:37.243Z,0.80
2023-04-14T02:06:05.478Z,1.23
2023-04-14T02:08:33.100Z,1.20
2023-04-14T02:11:02.427Z,1.03
2023-04-14T02:13:30.682Z,1.50
2023-04-14T02:15:59.332Z,0.80
2023-04-14T02:18:28.371Z,0.90
2023-04-14T02:20:57.854Z,0.70
2023-04-14T02:23:24.519Z,1.07
2023-04-14T02:26:13.792Z,1.20
2023-04-14T02:29:00.050Z,1.27
2023-04-14T02:31:30.319Z,0.60
2023-04-14T02:34:00.920Z,0.80
2023-04-14T02:36:43.526Z,1.40
2023-04-14T02:39:15.113Z,1.33
2023-04-14T02:41:44.849Z,0.93
2023-04-14T02:44:21.694Z,0.90
2023-04-14T02:47:03.849Z,0.83
2023-04-14T02:49:40.274Z,0.73
2023-04-14T02:52:09.772Z,0.80
2023-04-14T02:54:40.004Z,0.87
2023-04-14T02:57:07.334Z,1.03
2023-04-14T02:59:34.817Z,0.70
2023-04-14T03:02:05.048Z,0.70
2023-04-14T03:04:34.710Z,0.80
2023-04-14T03:07:03.269Z,1.03
2023-04-14T03:09:30.833Z,1.13
2023-04-14T03:11:58.778Z,1.37
2023-04-14T03:14:27.270Z,1.53
2023-04-14T03:16:54.893Z,0.83
2023-04-14T03:19:23.332Z,0.70
2023-04-14T03:21:51.252Z,1.10
2023-04-14T03:24:24.855Z,1.60
2023-04-14T03:26:57.432Z,0.97
2023-04-14T03:29:31.571Z,1.00
2023-04-14T03:32:01.473Z,0.80
2023-04-14T03:34:31.497Z,0.80
2023-04-14T03:36:59.718Z,0.60
2023-04-14T03:39:29.004Z,0.63
2023-04-14T03:41:57.343Z,1.27
2023-04-14T03:44:26.525Z,1.53
2023-04-14T03:46:54.997Z,0.97
2023-04-14T03:49:24.391Z,1.10
2023-04-14T03:51:53.517Z,0.93
2023-04-14T03:54:23.832Z,0.97
2023-04-14T03:56:52.313Z,0.87
2023-04-14T03:59:22.067Z,1.43
2023-04-14T04:01:49.954Z,1.57
2023-04-14T04:04:18.073Z,0.97
2023-04-14T04:06:45.011Z,1.10
2023-04-14T04:09:15.930Z,0.87
2023-04-14T04:11:44.214Z,1.00
2023-04-14T04:14:13.170Z,1.10
2023-04-14T04:16:43.042Z,1.60
2023-04-14T04:19:14.053Z,1.67
2023-04-14T04:21:43.520Z,0.90
2023-04-14T04:24:12.588Z,1.37
2023-04-14T04:26:39.612Z,0.90
2023-04-14T04:29:07.162Z,1.30
2023-04-14T04:31:34.672Z,1.47
2023-04-14T04:34:03.640Z,0.90
2023-04-14T04:36:31.847Z,1.50
2023-04-14T04:38:59.020Z,1.67
2023-04-14T04:41:28.830Z,1.10
2023-04-14T04:43:56.647Z,1.07
2023-04-14T04:46:55.694Z,1.53
2023-04-14T04:49:22.769Z,1.57
2023-04-14T04:51:49.769Z,1.70
2023-04-14T04:54:16.511Z,2.10
2023-04-14T04:56:43.212Z,1.63
2023-04-14T04:59:10.930Z,2.07
2023-04-14T05:01:37.837Z,1.60
2023-04-14T05:04:04.435Z,1.47
2023-04-14T05:06:34.580Z,1.50
2023-04-14T05:09:01.771Z,1.33
2023-04-14T05:11:28.649Z,2.20
2023-04-14T05:13:55.567Z,1.50
2023-04-14T05:16:22.306Z,1.30
2023-04-14T05:18:49.200Z,1.53
2023-04-14T05:21:16.228Z,1.80
2023-04-14T05:23:44.306Z,2.10
2023-04-14T05:26:39.077Z,1.43
2023-04-14T05:29:01.986Z,1.80
2023-04-14T05:31:28.781Z,2.17
2023-04-14T05:33:55.443Z,1.60
2023-04-14T05:36:22.045Z,1.93
2023-04-14T05:38:48.714Z,1.37
2023-04-14T05:41:15.714Z,1.43
2023-04-14T05:43:42.377Z,1.83
2023-04-14T05:46:08.958Z,1.67
2023-04-14T05:48:37.778Z,1.87
2023-04-14T05:51:04.866Z,1.50
2023-04-14T05:53:31.546Z,1.83
2023-04-14T05:55:58.225Z,1.30
2023-04-14T05:58:26.882Z,1.43
2023-04-14T06:00:53.709Z,2.00
2023-04-14T06:03:20.582Z,2.60
2023-04-14T06:05:48.335Z,1.57
2023-04-14T06:08:15.077Z,2.20
2023-04-14T06:10:41.806Z,1.37
2023-04-14T06:13:08.961Z,1.47
2023-04-14T06:15:35.802Z,1.90
2023-04-14T06:18:02.476Z,1.80
2023-04-14T06:20:32.021Z,1.60
2023-04-14T06:23:01.041Z,2.00
2023-04-14T06:25:27.844Z,3.27
2023-04-14T06:27:54.686Z,1.30
2023-04-14T06:30:21.301Z,1.57
2023-04-14T06:32:51.684Z,1.53
2023-04-14T06:35:32.031Z,1.40
2023-04-14T06:38:00.133Z,1.43
2023-04-14T06:40:27.431Z,1.90
2023-04-14T06:42:54.276Z,2.27
2023-04-14T06:45:21.204Z,1.60
2023-04-14T06:47:48.102Z,2.63
2023-04-14T06:50:14.815Z,2.60
2023-04-14T06:52:41.974Z,2.23
2023-04-14T06:55:09.156Z,2.60
2023-04-14T06:57:35.835Z,2.23
2023-04-14T07:00:04.653Z,1.63
2023-04-14T07:02:31.352Z,2.20
2023-04-14T07:04:58.097Z,1.57
2023-04-14T07:07:24.836Z,2.37
2023-04-14T07:09:52.126Z,2.13
2023-04-14T07:12:18.931Z,1.93
2023-04-14T07:14:52.168Z,2.30
2023-04-14T07:17:20.110Z,1.43
2023-04-14T07:19:47.125Z,2.33
2023-04-14T07:22:13.785Z,2.03
2023-04-14T07:24:40.939Z,2.00
2023-04-14T07:27:07.616Z,2.07
2023-04-14T07:29:35.370Z,2.07
2023-04-14T07:32:02.474Z,2.47
2023-04-14T07:34:29.230Z,2.30
2023-04-14T07:36:55.914Z,1.57
2023-04-14T07:39:23.851Z,1.80
2023-04-14T07:41:50.743Z,2.93
2023-04-14T07:44:17.453Z,2.63
2023-04-14T07:46:44.247Z,2.70
2023-04-14T07:49:11.070Z,2.87
2023-04-14T07:51:38.272Z,2.97
2023-04-14T07:54:06.341Z,2.17
2023-04-14T07:56:33.254Z,2.07
2023-04-14T07:59:00.261Z,2.20
2023-04-14T08:01:27.246Z,2.30
2023-04-14T08:03:54.286Z,2.27
2023-04-14T08:06:21.429Z,3.33
2023-04-14T08:08:48.167Z,2.20
2023-04-14T08:11:14.797Z,2.40
2023-04-14T08:13:42.813Z,2.47
2023-04-14T08:16:09.579Z,2.43
2023-04-14T08:18:37.232Z,2.40
2023-04-14T08:21:04.081Z,2.80
2023-04-14T08:23:30.922Z,2.03
2023-04-14T08:25:57.687Z,2.10
2023-04-14T08:28:24.810Z,2.13
2023-04-14T08:30:51.488Z,1.80
2023-04-14T08:33:18.127Z,2.80
2023-04-14T08:35:44.813Z,1.97
2023-04-14T08:38:11.766Z,2.07
2023-04-14T08:40:43.703Z,2.63
2023-04-14T08:43:13.138Z,2.07
2023-04-14T08:45:42.394Z,2.53
2023-04-14T08:48:12.184Z,2.20
2023-04-14T08:50:49.588Z,2.13
2023-04-14T08:53:18.222Z,1.83
2023-04-14T08:55:45.702Z,1.63
2023-04-14T08:58:12.709Z,2.47
2023-04-14T09:00:40.518Z,1.97
2023-04-14T09:03:09.460Z,2.20
2023-04-14T09:05:36.614Z,2.60
2023-04-14T09:08:04.633Z,1.83
2023-04-14T09:10:32.220Z,2.23
2023-04-14T09:12:58.959Z,1.93
2023-04-14T09:15:29.293Z,1.60
2023-04-14T09:17:56.718Z,2.43
2023-04-14T09:20:38.635Z,2.50
2023-04-14T09:23:12.555Z,2.07
2023-04-14T09:25:40.927Z,3.10
2023-04-14T09:28:08.408Z,1.97
2023-04-14T09:30:35.083Z,2.30
2023-04-14T09:33:08.395Z,2.30
2023-04-14T09:35:46.829Z,2.60
2023-04-14T09:38:13.443Z,2.30
2023-04-14T09:40:43.239Z,2.10
2023-04-14T09:43:22.416Z,2.47
2023-04-14T09:45:49.270Z,2.00
2023-04-14T09:48:16.397Z,2.63
2023-04-14T09:51:03.620Z,2.27
2023-04-14T09:53:35.878Z,1.87
2023-04-14T09:56:06.128Z,2.30
2023-04-14T09:58:34.649Z,1.97
2023-04-14T10:01:05.123Z,2.57
2023-04-14T10:03:40.296Z,2.67
2023-04-14T10:06:16.513Z,2.73
2023-04-14T10:08:51.737Z,2.50
2023-04-14T10:11:21.307Z,2.43
2023-04-14T10:13:49.831Z,1.83
2023-04-14T10:16:17.632Z,1.97
2023-04-14T10:18:44.422Z,2.20
2023-04-14T10:21:11.787Z,3.20
2023-04-14T10:23:39.828Z,2.07
2023-04-14T10:26:10.712Z,2.10
2023-04-14T10:28:43.954Z,2.00
2023-04-14T10:31:39.448Z,2.13
2023-04-14T10:34:14.066Z,1.73
2023-04-14T10:36:41.602Z,1.63
2023-04-14T10:39:10.219Z,1.83
2023-04-14T10:41:42.915Z,1.70
2023-04-14T10:44:24.968Z,1.83
2023-04-14T10:46:52.454Z,2.73
2023-04-14T10:49:19.162Z,2.03
2023-04-14T10:51:49.764Z,1.93
2023-04-14T10:54:19.506Z,2.10
2023-04-14T10:57:12.788Z,1.50
2023-04-14T10:59:43.646Z,1.63
2023-04-14T11:02:28.654Z,1.60
2023-04-14T11:05:13.583Z,2.53
2023-04-14T11:07:49.321Z,2.13
2023-04-14T11:10:24.947Z,1.80
2023-04-14T11:12:56.568Z,2.10
2023-04-14T11:15:23.716Z,1.50
2023-04-14T11:17:51.788Z,1.90
2023-04-14T11:20:25.230Z,2.03
2023-04-14T11:22:54.336Z,1.80
2023-04-14T11:25:27.541Z,2.00
2023-04-14T11:27:54.264Z,1.73
2023-04-14T11:30:21.978Z,1.70
2023-04-14T11:32:57.493Z,2.30
2023-04-14T11:35:26.207Z,1.90
2023-04-14T11:37:57.844Z,1.95
2023-04-14T11:40:26.766Z,1.80
2023-04-14T11:42:55.873Z,1.60
2023-04-14T11:45:23.621Z,1.90
2023-04-14T11:48:04.017Z,1.60
2023-04-14T11:50:33.326Z,1.75
2023-04-14T11:53:00.799Z,1.60
2023-04-14T11:55:28.004Z,1.27
2023-04-14T11:57:55.986Z,1.25
2023-04-14T12:00:23.010Z,1.77
2023-04-14T12:02:50.821Z,1.40
2023-04-14T12:05:25.495Z,1.75
2023-04-14T12:08:00.009Z,1.77
2023-04-14T12:10:27.854Z,1.52
2023-04-14T12:13:08.797Z,1.60
2023-04-14T12:15:38.137Z,1.48
2023-04-14T12:18:09.923Z,2.60
2023-04-14T12:20:47.136Z,1.92
2023-04-14T12:23:15.634Z,1.67
2023-04-14T12:25:42.231Z,1.87
2023-04-14T12:28:09.186Z,2.17
2023-04-14T12:30:37.421Z,1.90
2023-04-14T12:33:14.199Z,1.23
2023-04-14T12:35:41.015Z,1.37
2023-04-14T12:38:14.768Z,2.00
2023-04-14T12:40:44.862Z,1.20
2023-04-14T12:43:16.896Z,1.13
2023-04-14T12:45:48.330Z,1.33
2023-04-14T12:48:18.603Z,0.90
2023-04-14T12:50:45.601Z,1.47
2023-04-14T12:53:26.342Z,1.10
2023-04-14T12:56:24.118Z,0.70
2023-04-14T12:58:51.724Z,1.10
2023-04-14T13:01:21.076Z,1.00
2023-04-14T13:03:56.167Z,1.47
2023-04-14T13:06:24.804Z,1.03
2023-04-14T13:08:55.353Z,1.07
2023-04-14T13:11:23.752Z,1.33
2023-04-14T13:13:52.618Z,1.10
2023-04-14T13:16:20.459Z,1.27
2023-04-14T13:18:49.094Z,1.47
2023-04-14T13:21:16.026Z,1.10
2023-04-14T13:23:45.842Z,1.33
2023-04-14T13:26:15.898Z,1.37
2023-04-14T13:28:42.818Z,1.33
2023-04-14T13:31:11.653Z,1.17
2023-04-14T13:33:38.488Z,1.43
2023-04-14T13:36:05.476Z,1.10
2023-04-14T13:38:32.264Z,0.87
2023-04-14T13:41:02.638Z,1.10
2023-04-14T13:43:30.162Z,1.90
2023-04-14T13:45:58.819Z,1.47
2023-04-14T13:48:26.494Z,1.30
2023-04-14T13:50:54.598Z,1.53
2023-04-14T13:53:21.448Z,1.13
2023-04-14T13:55:48.125Z,1.40
2023-04-14T13:58:15.082Z,1.20
2023-04-14T14:00:42.346Z,1.10
2023-04-14T14:03:09.650Z,1.00
2023-04-14T14:05:36.521Z,1.10
2023-04-14T14:08:03.638Z,1.37
2023-04-14T14:10:30.765Z,0.90
2023-04-14T14:12:57.567Z,1.20
2023-04-14T14:15:24.310Z,1.40
2023-04-14T14:17:53.266Z,1.20
2023-04-14T14:20:20.424Z,1.13
2023-04-14T14:22:47.443Z,2.63
2023-04-14T14:25:20.542Z,1.83
2023-04-14T14:27:48.703Z,1.73
2023-04-14T14:30:16.069Z,1.20
2023-04-14T14:32:42.705Z,1.40
2023-04-14T14:35:09.776Z,1.40
2023-04-14T14:37:36.788Z,1.33
2023-04-14T14:40:04.181Z,1.70
2023-04-14T14:42:31.429Z,2.00
2023-04-14T14:44:58.052Z,1.70
2023-04-14T14:47:25.182Z,2.37
2023-04-14T14:49:59.686Z,2.27
2023-04-14T14:52:31.549Z,1.70
2023-04-14T14:54:58.395Z,2.00
2023-04-14T14:57:25.930Z,1.83
2023-04-14T14:59:53.059Z,1.97
2023-04-14T15:02:22.198Z,1.93
2023-04-14T15:04:49.926Z,2.03
2023-04-14T15:07:16.956Z,2.50
2023-04-14T15:09:46.252Z,2.10
2023-04-14T15:12:13.034Z,2.83
2023-04-14T15:14:39.719Z,1.97
2023-04-14T15:17:06.391Z,1.60
2023-04-14T15:19:33.137Z,1.90
2023-04-14T15:22:01.491Z,2.30
2023-04-14T15:24:28.257Z,2.10
2023-04-14T15:26:54.966Z,2.47
2023-04-14T15:29:25.165Z,1.90
2023-04-14T15:31:52.007Z,2.07
2023-04-14T15:34:18.689Z,2.40
2023-04-14T15:36:45.569Z,2.00
2023-04-14T15:39:12.427Z,2.00
2023-04-14T15:41:39.022Z,2.10
2023-04-14T15:44:05.974Z,2.40
2023-04-14T15:46:32.898Z,2.37
2023-04-14T15:48:59.679Z,2.53
2023-04-14T15:51:26.353Z,3.93
2023-04-14T15:53:53.195Z,3.33
2023-04-14T15:56:23.482Z,2.00
2023-04-14T15:58:50.855Z,1.53
2023-04-14T16:01:17.850Z,1.70
2023-04-14T16:03:44.788Z,1.90
2023-04-14T16:06:11.589Z,1.83
2023-04-14T16:08:38.342Z,1.50
2023-04-14T16:11:05.225Z,1.63
2023-04-14T16:13:31.989Z,0.90
2023-04-14T16:15:58.839Z,1.40
2023-04-14T16:18:25.535Z,1.53
2023-04-14T16:20:52.293Z,1.20
2023-04-14T16:23:19.050Z,1.00
2023-04-14T16:25:51.828Z,1.07
2023-04-14T16:28:18.862Z,1.03
2023-04-14T16:30:46.001Z,1.20
2023-04-14T16:33:13.358Z,1.40
2023-04-14T16:35:40.377Z,1.40
2023-04-14T16:38:08.856Z,1.20
2023-04-14T16:40:54.375Z,1.24
2023-04-14T16:43:21.204Z,1.27
2023-04-14T16:45:47.931Z,1.40
2023-04-14T16:48:14.693Z,1.17
2023-04-14T16:50:42.805Z,10.67
2023-04-14T16:53:09.625Z,2.83
2023-04-14T16:55:36.265Z,1.27
2023-04-14T16:58:03.417Z,1.57
2023-04-14T17:00:30.789Z,1.37
2023-04-14T17:02:57.959Z,1.53
2023-04-14T17:05:24.709Z,1.47
2023-04-14T17:07:51.632Z,2.30
2023-04-14T17:10:18.453Z,1.53
2023-04-14T17:12:46.753Z,1.40
2023-04-14T17:15:13.723Z,1.37
2023-04-14T17:17:40.443Z,1.70
2023-04-14T17:20:07.992Z,1.90
2023-04-14T17:22:34.946Z,2.30
2023-04-14T17:25:04.917Z,2.07
2023-04-14T17:27:32.081Z,1.47
2023-04-14T17:29:59.242Z,1.70
2023-04-14T17:32:26.644Z,2.47
2023-04-14T17:34:53.589Z,2.17
2023-04-14T17:37:20.586Z,1.80
2023-04-14T17:39:49.374Z,1.70
2023-04-14T17:42:16.097Z,1.77
2023-04-14T17:44:42.903Z,1.37
2023-04-14T17:47:15.741Z,1.87
2023-04-14T17:49:43.237Z,1.73
2023-04-14T17:52:11.142Z,1.73
2023-04-14T17:54:37.855Z,1.90
2023-04-14T17:57:04.741Z,1.50
2023-04-14T17:59:31.872Z,1.67
2023-04-14T18:01:58.848Z,1.90
2023-04-14T18:04:25.698Z,1.90
2023-04-14T18:06:53.162Z,1.40
2023-04-14T18:09:19.755Z,2.00
2023-04-14T18:11:46.553Z,1.87
2023-04-14T18:14:13.899Z,1.80
2023-04-14T18:16:40.960Z,1.97
2023-04-14T18:19:07.687Z,1.80
2023-04-14T18:21:34.653Z,1.57
2023-04-14T18:26:30.993Z,2.40
2023-04-14T18:28:57.919Z,1.97
2023-04-14T18:31:25.481Z,1.87
2023-04-14T18:33:52.099Z,2.20
2023-04-14T18:36:18.796Z,1.87
2023-04-14T18:38:45.710Z,2.27
2023-04-14T18:41:12.329Z,2.57
2023-04-14T18:43:39.643Z,2.33
2023-04-14T18:46:06.750Z,2.53
2023-04-14T18:48:33.567Z,2.63
2023-04-14T18:51:02.583Z,2.30
2023-04-14T18:53:29.393Z,2.83
2023-04-14T18:55:56.073Z,3.07
2023-04-14T18:58:23.103Z,2.03
2023-04-14T19:00:49.784Z,3.27
2023-04-14T19:03:17.266Z,2.47
2023-04-14T19:05:44.382Z,3.13
2023-04-14T19:08:11.056Z,3.10
2023-04-14T19:10:37.728Z,2.67
2023-04-14T19:13:04.532Z,2.90
2023-04-14T19:15:31.255Z,2.30
2023-04-14T19:17:57.850Z,3.20
2023-04-14T19:20:24.960Z,3.70
2023-04-14T19:22:51.657Z,2.30
2023-04-14T19:25:18.668Z,3.83
2023-04-14T19:27:45.381Z,3.27
2023-04-14T19:30:12.589Z,2.97
2023-04-14T19:32:39.906Z,2.57
2023-04-14T19:35:07.890Z,2.53
2023-04-14T19:37:35.188Z,3.03
2023-04-14T19:40:03.689Z,2.40
2023-04-14T19:42:30.434Z,2.73
2023-04-14T19:44:57.616Z,2.47
2023-04-14T19:47:24.442Z,2.27
2023-04-14T19:49:52.111Z,2.57
2023-04-14T19:52:22.410Z,2.73
2023-04-14T19:54:50.001Z,2.40
2023-04-14T19:57:16.973Z,3.07
2023-04-14T19:59:44.391Z,3.37
2023-04-14T20:02:13.513Z,2.83
2023-04-14T20:04:40.741Z,3.07
2023-04-14T20:07:07.783Z,2.63
2023-04-14T20:09:34.882Z,3.00
2023-04-14T20:12:02.548Z,3.23
2023-04-14T20:14:29.567Z,2.60
2023-04-14T20:16:56.979Z,2.63
2023-04-14T20:19:24.563Z,2.83
2023-04-14T20:21:51.397Z,3.07
2023-04-14T20:24:18.266Z,2.90
2023-04-14T20:26:45.172Z,3.27
2023-04-14T20:29:12.379Z,2.63
2023-04-14T20:31:39.834Z,2.90
2023-04-14T20:34:06.561Z,2.73
2023-04-14T20:36:36.053Z,2.87
2023-04-14T20:39:06.148Z,2.90
2023-04-14T20:41:33.907Z,3.27
2023-04-14T20:44:00.858Z,3.27
2023-04-14T20:46:28.137Z,3.13
2023-04-14T20:48:54.891Z,2.63
2023-04-14T20:51:21.584Z,2.87
2023-04-14T20:53:48.713Z,3.30
2023-04-14T20:56:15.294Z,3.30
2023-04-14T20:58:41.960Z,2.63
2023-04-14T21:01:09.390Z,3.43
2023-04-14T21:03:36.397Z,3.23
2023-04-14T21:06:03.228Z,2.73
2023-04-14T21:08:29.946Z,3.20
2023-04-14T21:11:15.040Z,3.03
2023-04-14T21:15:30.715Z,3.47
2023-04-14T21:16:30.632Z,4.13
2023-04-14T21:18:57.687Z,3.40
2023-04-14T21:21:24.448Z,3.60
2023-04-14T21:23:51.395Z,3.10
2023-04-14T21:26:19.323Z,3.73
2023-04-14T21:28:46.219Z,3.57
2023-04-14T21:31:13.010Z,3.17
2023-04-14T21:33:41.810Z,3.60
2023-04-14T21:36:09.880Z,3.90
2023-04-14T21:38:37.636Z,3.60
2023-04-14T21:41:04.481Z,3.83
2023-04-14T21:43:31.110Z,4.30
2023-04-14T21:45:57.949Z,2.60
2023-04-14T21:48:24.782Z,3.70
2023-04-14T21:50:51.399Z,3.17
2023-04-14T21:53:18.210Z,2.73
2023-04-14T21:55:44.917Z,3.07
2023-04-14T21:58:11.721Z,2.73
2023-04-14T22:00:38.348Z,1.97
2023-04-14T22:03:05.303Z,2.20
2023-04-14T22:05:32.272Z,2.20
2023-04-14T22:07:58.899Z,2.27
2023-04-14T22:10:32.328Z,2.00
2023-04-14T22:13:03.078Z,2.50
2023-04-14T22:15:29.669Z,1.97
2023-04-14T22:17:56.538Z,2.30
2023-04-14T22:20:23.974Z,2.47
2023-04-14T22:22:50.578Z,2.03
2023-04-14T22:25:17.279Z,2.17
2023-04-14T22:27:43.877Z,2.10
2023-04-14T22:30:11.919Z,2.20
2023-04-14T22:32:38.569Z,2.03
2023-04-14T22:35:05.545Z,2.23
2023-04-14T22:37:32.903Z,2.17
2023-04-14T22:40:02.468Z,1.80
2023-04-14T22:42:29.313Z,2.50
2023-04-14T22:44:55.880Z,2.60
2023-04-14T22:47:22.527Z,2.40
2023-04-14T22:49:49.196Z,2.30
2023-04-14T22:52:15.815Z,3.27
2023-04-14T22:54:42.346Z,2.60
2023-04-14T22:57:10.507Z,3.10
2023-04-14T22:59:38.011Z,2.83
2023-04-14T23:02:04.771Z,3.37
2023-04-14T23:04:31.564Z,3.43
2023-04-14T23:06:58.218Z,3.23
2023-04-14T23:09:25.004Z,3.43
2023-04-14T23:11:52.040Z,3.23
2023-04-14T23:14:18.601Z,3.57
2023-04-14T23:16:45.242Z,3.60
2023-04-14T23:19:12.016Z,3.23
2023-04-14T23:21:39.050Z,2.70
2023-04-14T23:24:06.827Z,3.33
2023-04-14T23:26:33.708Z,2.73
2023-04-14T23:29:01.094Z,2.93
2023-04-14T23:31:28.254Z,2.90
2023-04-14T23:33:55.076Z,2.53
2023-04-14T23:36:22.555Z,2.53
2023-04-14T23:38:49.586Z,2.73
2023-04-14T23:41:17.054Z,2.53
2023-04-14T23:43:44.061Z,2.23
2023-04-14T23:46:10.787Z,2.60
2023-04-14T23:48:37.970Z,2.43
2023-04-14T23:51:19.186Z,2.80
2023-04-14T23:53:47.359Z,2.13
2023-04-14T23:56:14.293Z,2.43
2023-04-14T23:58:41.205Z,1.90
